Time;durP1;ratioP1;P1;durP2;ratioP2;P2;SDS_P1;SDS_P2;PMS_P1;PMS_P2;Temp;Humidity;BMP_temperature;BMP_pressure;BME280_temperature;BME280_humidity;BME280_pressure;Samples;Min_cycle;Max_cycle;Signal;HPM_P1;HPM_P2
2021/03/21 00:01:57;;;;;;;;;20.25;16.00;;;;;12.10;42.02;98871.00;4912289;28;102526;-84
2021/03/21 00:04:24;;;;;;;;;22.50;18.50;;;;;12.08;41.84;98873.91;4906050;28;104096;-84
2021/03/21 00:06:50;;;;;;;;;20.00;17.25;;;;;12.08;42.20;98878.50;4909248;28;102850;-76
2021/03/21 00:09:17;;;;;;;;;17.75;16.75;;;;;12.07;42.00;98865.97;4914363;28;103504;-77
2021/03/21 00:11:44;;;;;;;;;14.75;14.00;;;;;12.06;41.78;98867.03;4910185;28;102376;-76
2021/03/21 00:14:11;;;;;;;;;22.25;17.00;;;;;12.03;41.95;98856.56;4909148;28;104054;-76
2021/03/21 00:16:37;;;;;;;;;15.00;15.00;;;;;12.03;41.80;98860.13;4910383;28;102134;-77
2021/03/21 00:19:05;;;;;;;;;21.00;16.25;;;;;12.02;41.86;98860.34;4909512;28;102041;-76
2021/03/21 00:21:32;;;;;;;;;20.25;17.50;;;;;12.01;41.87;98859.50;4909286;28;102182;-76
2021/03/21 00:23:58;;;;;;;;;19.25;15.00;;;;;12.00;41.82;98848.88;4906510;28;105181;-76
2021/03/21 00:26:25;;;;;;;;;18.00;15.25;;;;;11.99;42.01;98847.19;4910194;28;102786;-76
2021/03/21 00:28:52;;;;;;;;;16.50;15.00;;;;;11.99;41.64;98847.19;4910440;28;102079;-76
2021/03/21 00:31:19;;;;;;;;;20.25;18.25;;;;;11.97;41.90;98843.88;4908713;28;102318;-77
2021/03/21 00:33:46;;;;;;;;;16.25;15.00;;;;;11.97;41.59;98833.03;4909837;28;104503;-76
2021/03/21 00:36:14;;;;;;;;;22.25;15.75;;;;;11.94;42.07;98845.09;4909723;28;102115;-77
2021/03/21 00:38:48;;;;;;;;;21.00;17.25;;;;;11.94;42.16;98838.84;4910995;28;102934;-76
2021/03/21 00:41:17;;;;;;;;;23.25;18.50;;;;;11.93;42.06;98831.75;4911498;28;102180;-76
2021/03/21 00:43:44;;;;;;;;;20.25;17.00;;;;;11.91;41.42;98823.00;4910811;28;104153;-76
2021/03/21 00:46:11;;;;;;;;;18.75;15.50;;;;;11.90;41.93;98816.72;4905223;28;102146;-76
2021/03/21 00:48:39;;;;;;;;;19.00;16.00;;;;;11.90;41.68;98824.03;4910155;28;102185;-76
2021/03/21 00:51:07;;;;;;;;;21.25;14.00;;;;;11.89;42.00;98814.22;4909062;28;104036;-76
2021/03/21 00:53:34;;;;;;;;;20.50;19.50;;;;;11.87;41.75;98802.75;4911998;28;104074;-76
2021/03/21 00:56:00;;;;;;;;;19.75;17.25;;;;;11.86;41.32;98798.38;4913296;28;102331;-76
2021/03/21 00:58:27;;;;;;;;;17.75;14.50;;;;;11.86;41.94;98798.38;4905937;28;103952;-76
2021/03/21 01:00:59;;;;;;;;;18.25;16.00;;;;;11.85;41.45;98792.13;4911281;28;102176;-76
2021/03/21 01:03:26;;;;;;;;;19.75;18.25;;;;;11.83;42.01;98782.53;4906708;28;104231;-76
2021/03/21 01:05:58;;;;;;;;;22.25;18.25;;;;;11.82;41.72;98787.13;4909350;28;104109;-84
2021/03/21 01:08:30;;;;;;;;;17.00;16.75;;;;;11.82;41.71;98780.88;4908494;28;102110;-84
2021/03/21 01:11:02;;;;;;;;;20.00;18.75;;;;;11.81;42.14;98776.47;4911968;28;102666;-84
2021/03/21 01:13:29;;;;;;;;;23.25;16.75;;;;;11.79;41.71;98776.69;4911830;28;104134;-84
2021/03/21 01:15:56;;;;;;;;;22.25;19.50;;;;;11.78;41.52;98758.78;4908171;28;102115;-84
2021/03/21 01:18:30;;;;;;;;;21.75;19.75;;;;;11.77;41.83;98758.97;4909611;28;102298;-84
2021/03/21 01:20:58;;;;;;;;;21.25;15.50;;;;;11.76;41.45;98751.88;4905586;28;103777;-84
2021/03/21 01:23:25;;;;;;;;;21.25;15.25;;;;;11.76;41.93;98757.28;4907370;28;104501;-84
2021/03/21 01:25:51;;;;;;;;;19.00;14.75;;;;;11.74;41.83;98740.41;4909650;28;102466;-83
2021/03/21 01:28:26;;;;;;;;;21.00;19.25;;;;;11.74;41.72;98740.41;4910634;28;102513;-83
2021/03/21 01:30:54;;;;;;;;;23.25;16.50;;;;;11.72;41.77;98737.03;4908731;28;105161;-84
2021/03/21 01:33:22;;;;;;;;;21.25;19.75;;;;;11.73;41.70;98727.91;4923315;28;104405;-83
2021/03/21 01:35:49;;;;;;;;;19.25;18.50;;;;;11.70;41.24;98728.31;4908709;28;102208;-77
2021/03/21 01:38:16;;;;;;;;;25.00;19.00;;;;;11.70;41.68;98728.31;4909569;28;102481;-77
2021/03/21 01:40:44;;;;;;;;;21.50;17.00;;;;;11.69;41.67;98730.16;4912363;28;102635;-76
2021/03/21 01:43:17;;;;;;;;;22.25;15.75;;;;;11.68;41.79;98719.53;4909147;28;104202;-76
2021/03/21 01:45:46;;;;;;;;;19.50;17.00;;;;;11.66;41.62;98717.03;4908374;28;103819;-76
2021/03/21 01:48:19;;;;;;;;;18.50;15.75;;;;;11.64;41.82;98717.25;4911086;28;102964;-76
2021/03/21 01:51:31;;;;;;;;;20.00;16.00;;;;;11.64;41.61;98711.81;4910834;28;102183;-77
2021/03/21 01:54:01;;;;;;;;;20.75;17.00;;;;;11.63;41.61;98709.31;4905597;28;104095;-76
2021/03/21 01:56:28;;;;;;;;;19.25;16.00;;;;;11.62;41.86;98711.19;4911199;28;102579;-76
2021/03/21 01:59:18;;;;;;;;;14.00;13.00;;;;;11.62;41.69;98708.47;4906823;28;102443;-77
2021/03/21 02:01:45;;;;;;;;;19.75;17.00;;;;;11.59;41.79;98689.94;4910152;28;103114;-77
2021/03/21 02:04:12;;;;;;;;;19.00;16.00;;;;;11.58;41.87;98685.56;4908632;28;104073;-76
2021/03/21 02:06:48;;;;;;;;;18.75;15.50;;;;;11.58;41.37;98682.00;4911178;28;102264;-84
2021/03/21 02:09:21;;;;;;;;;18.75;15.50;;;;;11.58;41.65;98679.31;4907566;28;102143;-84
2021/03/21 02:12:00;;;;;;;;;16.25;15.25;;;;;11.56;41.78;98670.56;4910654;28;102318;-84
2021/03/21 02:14:38;;;;;;;;;22.50;16.25;;;;;11.55;41.60;98669.72;4912056;28;104195;-84
2021/03/21 02:17:37;;;;;;;;;18.50;14.25;;;;;11.54;41.59;98667.22;4912178;28;102834;-84
2021/03/21 02:20:26;;;;;;;;;17.25;15.00;;;;;11.52;42.07;98664.72;4906663;28;102082;-84
2021/03/21 02:23:22;;;;;;;;;17.00;14.00;;;;;11.51;41.70;98654.94;4914630;28;104275;-83
2021/03/21 02:26:25;;;;;;;;;15.00;12.50;;;;;11.48;41.68;98644.50;4927826;28;104168;-83
2021/03/21 02:29:13;;;;;;;;;23.00;15.25;;;;;11.49;41.51;98640.75;4912140;28;102101;-85
2021/03/21 02:31:45;;;;;;;;;17.25;15.25;;;;;11.49;41.58;98634.50;4913293;28;101992;-83
2021/03/21 02:34:28;;;;;;;;;18.50;15.25;;;;;11.47;41.77;98621.19;4913039;28;102258;-83
2021/03/21 02:37:27;;;;;;;;;19.75;15.50;;;;;11.46;41.57;98616.81;4895163;28;104068;-84
2021/03/21 02:40:18;;;;;;;;;15.50;13.50;;;;;11.45;41.49;98607.00;4919911;28;104097;-84
2021/03/21 02:43:02;;;;;;;;;19.25;14.00;;;;;11.44;41.51;98599.06;4907618;28;103762;-84
2021/03/21 02:45:31;;;;;;;;;13.25;13.25;;;;;11.43;41.71;98603.69;4911543;28;102365;-85
2021/03/21 02:48:23;;;;;;;;;20.75;14.25;;;;;11.41;41.81;98594.94;4911424;28;104571;-84
2021/03/21 02:50:55;;;;;;;;;16.00;14.50;;;;;11.42;41.36;98591.19;4907424;28;102547;-83
2021/03/21 02:53:32;;;;;;;;;19.75;12.75;;;;;11.41;41.50;98594.94;4913958;28;101983;-84
2021/03/21 02:59:30;;;;;;;;;15.75;12.75;;;;;11.38;41.71;98595.34;4911445;28;109108;-85
2021/03/21 03:02:09;;;;;;;;;16.25;14.50;;;;;11.38;41.54;98592.63;4915027;28;102150;-86
2021/03/21 03:04:43;;;;;;;;;16.50;13.75;;;;;11.37;41.63;98588.25;4913022;28;102081;-85
2021/03/21 03:07:22;;;;;;;;;14.25;13.00;;;;;11.36;41.46;98581.16;4913807;28;102941;-84
2021/03/21 03:09:50;;;;;;;;;16.00;14.00;;;;;11.35;41.49;98573.25;4910867;28;104038;-84
2021/03/21 03:12:27;;;;;;;;;16.00;14.50;;;;;11.33;41.65;98565.34;4910457;28;102394;-85
2021/03/21 03:14:54;;;;;;;;;22.75;16.25;;;;;11.33;41.46;98554.53;4911208;28;102046;-85
2021/03/21 03:17:41;;;;;;;;;17.75;16.75;;;;;11.33;41.40;98551.81;4912162;28;102225;-86
2021/03/21 03:20:39;;;;;;;;;16.50;12.75;;;;;11.33;41.34;98548.28;4903319;28;104157;-85
2021/03/21 03:23:27;;;;;;;;;12.50;11.50;;;;;11.32;41.55;98547.44;4913529;28;102212;-85
2021/03/21 03:26:01;;;;;;;;;18.50;14.25;;;;;11.29;41.45;98534.31;4912645;28;102316;-85
2021/03/21 03:28:30;;;;;;;;;11.75;11.00;;;;;11.29;41.80;98526.22;4910838;28;102366;-85
2021/03/21 03:31:19;;;;;;;;;18.50;14.00;;;;;11.25;41.56;98508.72;4914096;28;104056;-85
2021/03/21 03:33:46;;;;;;;;;16.25;12.00;;;;;11.26;41.41;98513.06;4912449;28;102528;-85
2021/03/21 03:36:14;;;;;;;;;16.50;14.00;;;;;11.25;41.34;98500.59;4913637;28;102091;-76
2021/03/21 03:38:42;;;;;;;;;12.75;12.25;;;;;11.25;41.44;98503.31;4916955;28;102562;-76
2021/03/21 03:41:30;;;;;;;;;13.75;13.00;;;;;11.24;41.66;98503.50;4914874;28;104035;-76
2021/03/21 03:44:18;;;;;;;;;14.50;12.00;;;;;11.24;41.85;98495.38;4895002;28;102321;-76
2021/03/21 03:47:02;;;;;;;;;18.75;14.75;;;;;11.23;41.29;98491.84;4913993;28;102241;-76
2021/03/21 03:49:32;;;;;;;;;13.75;12.25;;;;;11.22;41.19;98486.63;4927901;28;103202;-76
2021/03/21 03:52:23;;;;;;;;;16.75;12.50;;;;;11.21;41.47;98484.97;4908315;28;104068;-76
2021/03/21 03:55:00;;;;;;;;;14.50;11.25;;;;;11.19;41.65;98477.06;4908372;28;102181;-76
2021/03/21 03:57:38;;;;;;;;;12.00;9.50;;;;;11.18;41.46;98472.69;4931078;28;102082;-76
2021/03/21 04:00:19;;;;;;;;;13.00;11.00;;;;;11.16;41.62;98467.50;4913233;28;102047;-76
2021/03/21 04:03:07;;;;;;;;;16.25;10.50;;;;;11.16;41.41;98461.25;4896825;28;104156;-76
2021/03/21 04:05:57;;;;;;;;;11.00;9.50;;;;;11.15;41.51;98460.41;4909879;28;102101;-85
2021/03/21 04:08:42;;;;;;;;;16.75;12.75;;;;;11.15;41.23;98448.75;4909613;28;102456;-85
2021/03/21 04:11:26;;;;;;;;;13.00;12.00;;;;;11.17;41.17;98452.06;4914401;28;103005;-85
2021/03/21 04:14:23;;;;;;;;;12.75;12.00;;;;;11.18;41.47;98448.31;4909892;28;104122;-85
2021/03/21 04:17:01;;;;;;;;;10.00;10.00;;;;;11.21;41.16;98439.81;4911499;28;102183;-85
2021/03/21 04:19:29;;;;;;;;;14.25;12.00;;;;;11.24;41.09;98441.25;4909495;28;102650;-85
2021/03/21 04:21:59;;;;;;;;;10.00;9.25;;;;;11.25;41.20;98427.53;4894272;28;103890;-85
2021/03/21 04:24:41;;;;;;;;;11.00;9.75;;;;;11.25;40.65;98435.63;4907305;28;104090;-84
2021/03/21 04:27:13;;;;;;;;;10.75;8.75;;;;;11.26;40.78;98423.75;4893741;28;102306;-85
2021/03/21 04:29:58;;;;;;;;;11.75;10.25;;;;;11.29;40.89;98425.22;4897622;28;102963;-85
2021/03/21 04:32:32;;;;;;;;;10.50;10.50;;;;;11.27;40.82;98411.88;4912218;28;102208;-85
2021/03/21 04:35:01;;;;;;;;;11.50;9.50;;;;;11.29;40.86;98408.97;4919466;28;104145;-76
2021/03/21 04:37:28;;;;;;;;;13.00;12.50;;;;;11.29;40.61;98411.69;4878726;28;102166;-76
2021/03/21 04:39:54;;;;;;;;;11.75;11.25;;;;;11.28;40.57;98402.72;4914939;28;102017;-76
2021/03/21 04:42:27;;;;;;;;;14.00;10.50;;;;;11.27;40.51;98398.34;4896284;28;103296;-76
2021/03/21 04:44:59;;;;;;;;;11.75;10.00;;;;;11.28;40.39;98393.78;4909403;28;104208;-76
2021/03/21 04:47:28;;;;;;;;;12.75;10.25;;;;;11.27;40.51;98389.41;4890561;28;102494;-76
2021/03/21 04:49:56;;;;;;;;;13.00;11.00;;;;;11.27;40.51;98390.22;4913461;28;102321;-76
2021/03/21 04:52:59;;;;;;;;;11.50;10.00;;;;;11.26;40.63;98376.94;4912536;28;102094;-76
2021/03/21 04:55:39;;;;;;;;;12.75;11.25;;;;;11.27;40.78;98376.69;4909689;28;104733;-76
2021/03/21 04:58:09;;;;;;;;;10.25;7.00;;;;;11.27;40.93;98374.00;4911117;28;102113;-76
2021/03/21 05:00:39;;;;;;;;;11.50;10.00;;;;;11.25;41.02;98373.41;4911781;28;102300;-76
2021/03/21 05:03:25;;;;;;;;;12.75;9.00;;;;;11.26;40.65;98374.22;4908354;28;102174;-77
2021/03/21 05:05:58;;;;;;;;;10.25;9.50;;;;;11.26;40.66;98368.81;4906750;28;104078;-85
2021/03/21 05:08:27;;;;;;;;;9.25;8.25;;;;;11.24;40.43;98369.00;4911714;28;102171;-85
2021/03/21 05:10:58;;;;;;;;;8.25;7.25;;;;;11.22;40.43;98364.84;4926331;28;104289;-85
2021/03/21 05:13:33;;;;;;;;;10.00;8.50;;;;;11.23;40.83;98366.50;4909891;28;102192;-85
2021/03/21 05:16:02;;;;;;;;;11.00;10.25;;;;;11.23;40.77;98361.09;4911923;28;104068;-85
2021/03/21 05:19:03;;;;;;;;;10.25;8.75;;;;;11.22;40.79;98356.72;4908929;28;102442;-85
2021/03/21 05:21:32;;;;;;;;;9.75;7.50;;;;;11.21;40.89;98358.63;4910640;28;102149;-85
2021/03/21 05:24:39;;;;;;;;;8.00;6.75;;;;;11.20;40.76;98351.53;4912217;28;102532;-85
2021/03/21 05:27:15;;;;;;;;;8.00;6.00;;;;;11.19;40.81;98358.81;4935245;28;104082;-85
2021/03/21 05:29:48;;;;;;;;;10.00;8.50;;;;;11.18;40.70;98345.50;4894288;28;103035;-85
2021/03/21 05:32:15;;;;;;;;;7.25;6.00;;;;;11.19;40.87;98352.56;4909029;28;102032;-85
2021/03/21 05:34:42;;;;;;;;;10.50;5.75;;;;;11.18;40.42;98345.50;4922734;28;102123;-85
2021/03/21 05:37:29;;;;;;;;;10.50;6.75;;;;;11.17;40.44;98346.53;4927412;28;104068;-85
2021/03/21 05:40:37;;;;;;;;;7.25;6.50;;;;;11.16;40.52;98342.19;4912499;28;102317;-84
2021/03/21 05:43:33;;;;;;;;;6.75;6.75;;;;;11.16;40.53;98342.19;4867593;28;103696;-85
2021/03/21 05:46:24;;;;;;;;;8.75;6.00;;;;;11.14;40.71;98338.84;4876861;28;102226;-85
2021/03/21 05:49:09;;;;;;;;;8.25;8.25;;;;;11.15;40.61;98340.50;4913132;28;104178;-85
2021/03/21 05:52:00;;;;;;;;;8.00;7.50;;;;;11.14;40.77;98333.44;4914083;28;102030;-85
2021/03/21 05:54:45;;;;;;;;;10.00;6.50;;;;;11.13;41.07;98337.16;4930469;28;102160;-85
2021/03/21 05:57:30;;;;;;;;;8.00;6.00;;;;;11.13;40.62;98329.06;4917775;28;103019;-85
2021/03/21 06:00:18;;;;;;;;;9.00;6.00;;;;;11.12;40.95;98330.13;4912057;28;104075;-84
2021/03/21 06:03:00;;;;;;;;;8.75;7.75;;;;;11.11;40.85;98317.63;4913072;28;102020;-85
2021/03/21 06:05:53;;;;;;;;;9.00;6.50;;;;;11.10;40.86;98305.13;4912326;28;102434;-76
2021/03/21 06:08:57;;;;;;;;;4.50;4.50;;;;;11.10;40.71;98305.97;4913450;28;102323;-76
2021/03/21 06:11:56;;;;;;;;;10.75;8.00;;;;;11.09;40.56;98300.75;4922031;28;104256;-76
2021/03/21 06:14:48;;;;;;;;;5.75;5.75;;;;;11.09;40.67;98298.88;4895378;28;102691;-76
2021/03/21 06:17:33;;;;;;;;;10.00;7.00;;;;;11.09;40.85;98303.47;4925689;28;102215;-76
2021/03/21 06:20:03;;;;;;;;;6.25;6.00;;;;;11.08;40.77;98299.09;4912141;28;102555;-76
2021/03/21 06:23:13;;;;;;;;;6.50;6.00;;;;;11.07;40.69;98292.03;4912322;28;105766;-76
2021/03/21 06:26:02;;;;;;;;;9.00;5.00;;;;;11.07;40.67;98279.34;4913707;28;102255;-76
2021/03/21 06:28:57;;;;;;;;;5.50;5.50;;;;;11.06;40.67;98277.69;4910013;28;102226;-76
2021/03/21 06:31:49;;;;;;;;;7.25;5.50;;;;;11.06;40.51;98277.69;4913896;28;102478;-76
2021/03/21 06:34:42;;;;;;;;;10.00;8.75;;;;;11.05;40.85;98269.75;4911965;28;104260;-76
2021/03/21 06:37:39;;;;;;;;;5.50;3.00;;;;;11.06;40.66;98260.59;4909378;28;103083;-76
2021/03/21 06:40:33;;;;;;;;;3.75;3.75;;;;;11.05;40.71;98258.94;4913613;28;102607;-76
2021/03/21 06:43:32;;;;;;;;;4.75;4.75;;;;;11.05;40.82;98258.94;4906998;28;103707;-76
2021/03/21 06:46:12;;;;;;;;;5.25;4.75;;;;;11.04;40.69;98257.28;4913516;28;105748;-76
2021/03/21 06:49:10;;;;;;;;;5.75;4.75;;;;;11.02;40.61;98270.19;4914832;28;102558;-76
2021/03/21 06:52:04;;;;;;;;;13.00;6.00;;;;;11.02;40.51;98262.06;4911454;28;102410;-76
2021/03/21 06:54:43;;;;;;;;;5.50;5.25;;;;;11.01;40.90;98255.00;4917986;28;102106;-76
2021/03/21 06:57:35;;;;;;;;;6.00;5.50;;;;;11.00;40.96;98254.16;4925507;28;103775;-76
2021/03/21 07:00:24;;;;;;;;;6.50;4.75;;;;;10.99;40.67;98255.19;4912220;28;102085;-76
2021/03/21 07:03:22;;;;;;;;;5.75;5.00;;;;;11.00;40.50;98250.63;4910751;28;102110;-76
2021/03/21 07:06:38;;;;;;;;;6.50;5.00;;;;;10.99;40.61;98235.44;4927614;28;102628;-76
2021/03/21 07:09:32;;;;;;;;;4.50;4.00;;;;;10.99;40.38;98233.56;4912792;28;104422;-76
2021/03/21 07:12:01;;;;;;;;;7.00;5.75;;;;;10.99;40.47;98238.97;4909731;28;102889;-75
2021/03/21 07:15:01;;;;;;;;;5.75;4.75;;;;;10.98;40.81;98233.78;4914025;28;103656;-76
2021/03/21 07:17:59;;;;;;;;;5.75;3.25;;;;;10.97;40.56;98229.41;4912375;28;102540;-76
2021/03/21 07:20:59;;;;;;;;;9.00;6.00;;;;;10.96;40.74;98227.75;4920527;28;104434;-76
2021/03/21 07:24:09;;;;;;;;;4.50;3.75;;;;;10.95;40.44;98231.50;4920237;28;102493;-76
2021/03/21 07:27:10;;;;;;;;;5.25;4.00;;;;;10.95;40.80;98235.03;4921774;28;102638;-76
2021/03/21 07:29:44;;;;;;;;;5.00;4.00;;;;;10.95;40.72;98226.06;4928592;28;104575;-77
2021/03/21 07:32:56;;;;;;;;;5.00;4.50;;;;;10.94;40.70;98224.44;4911694;28;104193;-76
2021/03/21 07:35:53;;;;;;;;;6.00;4.25;;;;;10.94;40.42;98224.44;4911129;28;102051;-76
2021/03/21 07:38:28;;;;;;;;;4.75;3.50;;;;;10.92;40.40;98211.13;4910183;28;102205;-76
2021/03/21 07:41:01;;;;;;;;;4.00;4.00;;;;;10.93;40.47;98206.53;4913595;28;102220;-76
2021/03/21 07:43:32;;;;;;;;;5.50;4.75;;;;;10.93;40.52;98201.13;4911897;28;104271;-76
2021/03/21 07:46:06;;;;;;;;;5.00;4.00;;;;;10.92;40.58;98194.88;4921346;28;102365;-76
2021/03/21 07:48:39;;;;;;;;;4.25;4.00;;;;;10.93;40.64;98195.72;4910757;28;102103;-77
2021/03/21 07:51:17;;;;;;;;;4.25;3.75;;;;;10.93;40.50;98195.72;4911929;28;102396;-76
2021/03/21 07:53:53;;;;;;;;;5.00;5.00;;;;;10.95;40.06;98196.31;4910474;28;104209;-76
2021/03/21 07:56:49;;;;;;;;;4.50;4.50;;;;;10.94;40.56;98202.81;4911254;28;102593;-83
2021/03/21 07:59:22;;;;;;;;;3.75;3.00;;;;;10.93;40.31;98198.44;4913473;28;102214;-83
2021/03/21 08:01:50;;;;;;;;;5.00;4.25;;;;;10.93;40.48;98184.91;4906947;28;102425;-83
2021/03/21 08:04:23;;;;;;;;;3.50;3.50;;;;;10.94;40.58;98181.16;4911337;28;104097;-86
2021/03/21 08:07:00;;;;;;;;;8.25;4.25;;;;;10.93;40.22;98174.91;4896270;28;102238;-85
2021/03/21 08:09:41;;;;;;;;;5.00;5.00;;;;;10.92;40.27;98184.06;5581065;22;102610;-83
2021/03/21 08:18:00;;;;;;;;;4.75;4.25;;;;;10.93;40.23;98169.50;4928809;28;102514;-89
2021/03/21 08:20:29;;;;;;;;;5.00;5.00;;;;;10.92;40.54;98162.44;4912195;28;102152;-86
2021/03/21 08:23:28;;;;;;;;;3.25;3.25;;;;;10.89;40.32;98153.91;4932540;28;102651;-85
2021/03/21 08:25:59;;;;;;;;;5.00;4.50;;;;;10.92;40.08;98164.31;4924863;28;104073;-85
2021/03/21 08:28:35;;;;;;;;;4.00;3.50;;;;;10.92;40.36;98159.72;4924556;28;102391;-85
2021/03/21 08:31:10;;;;;;;;;4.00;3.00;;;;;10.92;40.34;98154.31;4922628;28;103347;-85
2021/03/21 08:33:39;;;;;;;;;3.75;3.75;;;;;10.93;40.36;98147.88;4927137;28;102089;-82
2021/03/21 08:36:19;;;;;;;;;4.75;4.50;;;;;10.94;40.50;98146.00;4927641;28;104154;-83
2021/03/21 08:39:01;;;;;;;;;3.50;3.50;;;;;10.95;41.19;98142.22;4933080;28;101950;-83
2021/03/21 08:41:29;;;;;;;;;4.75;4.00;;;;;10.95;40.89;98144.94;4915260;28;104299;-85
2021/03/21 08:44:04;;;;;;;;;4.00;3.25;;;;;10.94;40.84;98143.28;4926630;28;102175;-85
2021/03/21 08:46:31;;;;;;;;;4.00;3.75;;;;;10.93;40.51;98149.75;4929192;28;104358;-85
2021/03/21 08:49:13;;;;;;;;;3.25;3.25;;;;;10.93;40.97;98138.91;4930381;28;102029;-84
2021/03/21 08:51:40;;;;;;;;;3.75;3.00;;;;;10.92;40.81;98154.31;4941488;28;102453;-84
2021/03/21 08:54:10;;;;;;;;;4.75;3.75;;;;;10.92;40.73;98139.97;4943720;28;102092;-89
2021/03/21 08:56:56;;;;;;;;;3.75;3.75;;;;;10.92;40.60;98146.19;4922085;28;104501;-89
2021/03/21 08:59:28;;;;;;;;;3.25;2.75;;;;;10.92;40.60;98140.78;4932514;28;102693;-89
2021/03/21 09:02:08;;;;;;;;;3.00;3.00;;;;;10.92;40.51;98139.97;4928037;28;101997;-89
2021/03/21 09:04:38;;;;;;;;;6.25;4.50;;;;;10.91;40.64;98135.59;4933418;28;102135;-89
2021/03/21 09:07:25;;;;;;;;;5.00;4.75;;;;;10.92;40.57;98134.53;4917680;28;104038;-89
2021/03/21 09:10:11;;;;;;;;;6.75;4.00;;;;;10.93;40.18;98128.94;4941108;28;102177;-89
2021/03/21 09:12:40;;;;;;;;;5.75;5.00;;;;;10.93;40.10;98120.00;4848098;28;102339;-89
2021/03/21 09:15:28;;;;;;;;;4.25;3.50;;;;;10.93;40.58;98123.53;4892196;28;102782;-89
2021/03/21 09:18:05;;;;;;;;;3.75;3.75;;;;;10.91;40.08;98122.91;4899718;28;104010;-88
2021/03/21 09:20:34;;;;;;;;;3.75;3.75;;;;;10.94;40.48;98127.88;4891035;28;102774;-87
2021/03/21 09:23:38;;;;;;;;;5.00;5.00;;;;;10.93;40.33;98126.22;4905837;28;102560;-87
2021/03/21 09:26:21;;;;;;;;;5.25;4.00;;;;;10.93;40.41;98137.06;4845047;28;103571;-84
2021/03/21 09:28:59;;;;;;;;;5.25;4.75;;;;;10.94;40.52;98143.28;4889997;28;104257;-85
2021/03/21 09:31:26;;;;;;;;;4.75;4.00;;;;;10.93;40.12;98125.41;4898077;28;102275;-84
2021/03/21 09:34:06;;;;;;;;;3.75;3.50;;;;;10.92;40.09;98132.69;4895373;28;102554;-83
2021/03/21 09:36:42;;;;;;;;;5.25;4.00;;;;;10.93;40.08;98136.22;4891443;28;102300;-84
2021/03/21 09:39:24;;;;;;;;;4.50;3.00;;;;;10.91;39.93;98116.66;4896281;28;104241;-84
2021/03/21 09:41:52;;;;;;;;;3.25;2.75;;;;;10.90;40.21;98120.41;4900199;28;102847;-84
2021/03/21 09:44:22;;;;;;;;;5.00;5.00;;;;;10.91;40.50;98111.25;4896160;28;102141;-83
2021/03/21 09:46:52;;;;;;;;;5.00;4.00;;;;;10.90;40.41;98117.69;4876992;28;102852;-84
2021/03/21 09:49:36;;;;;;;;;4.75;3.75;;;;;10.91;39.64;98108.53;4860041;28;104184;-85
2021/03/21 09:52:31;;;;;;;;;4.75;4.00;;;;;10.89;40.29;98116.06;4699760;28;102299;-84
2021/03/21 09:55:26;;;;;;;;;3.75;3.00;;;;;10.88;39.66;98112.50;4896920;28;102729;-85
2021/03/21 09:58:25;;;;;;;;;4.75;4.00;;;;;10.90;40.08;98104.16;4706298;28;102934;-85
2021/03/21 10:01:23;;;;;;;;;5.00;4.00;;;;;10.89;40.03;98103.38;4777231;28;104345;-83
2021/03/21 10:03:55;;;;;;;;;6.00;4.00;;;;;10.89;40.19;98097.94;4717054;28;102679;-81
2021/03/21 10:06:24;;;;;;;;;4.25;4.00;;;;;10.88;40.41;98100.88;4859442;28;102520;-82
2021/03/21 10:09:12;;;;;;;;;5.50;5.50;;;;;10.86;40.27;98087.53;4747897;28;104187;-82
2021/03/21 10:11:45;;;;;;;;;3.00;3.00;;;;;10.86;40.26;98097.53;4758297;28;108611;-82
2021/03/21 10:14:29;;;;;;;;;6.00;5.00;;;;;10.85;40.23;98076.97;4874748;28;102761;-82
2021/03/21 10:16:57;;;;;;;;;4.00;3.75;;;;;10.85;40.43;98080.47;4804648;28;105017;-81
2021/03/21 10:19:46;;;;;;;;;4.00;3.50;;;;;10.85;39.96;98082.38;4811080;28;102461;-81
2021/03/21 10:22:16;;;;;;;;;4.50;4.00;;;;;10.86;40.29;98084.00;4835335;28;109610;-81
2021/03/21 10:24:50;;;;;;;;;3.50;3.50;;;;;10.88;40.62;98073.81;4899119;28;103356;-81
2021/03/21 10:27:18;;;;;;;;;4.00;4.00;;;;;10.85;40.33;98064.25;4886631;28;102174;-81
2021/03/21 10:29:51;;;;;;;;;4.50;3.25;;;;;10.84;40.66;98059.06;4913493;28;103914;-81
2021/03/21 10:32:26;;;;;;;;;4.00;3.25;;;;;10.85;40.21;98069.66;4799635;28;104381;-81
2021/03/21 10:34:57;;;;;;;;;3.50;3.00;;;;;10.83;40.35;98073.63;4743958;28;102591;-81
2021/03/21 10:37:42;;;;;;;;;8.00;4.00;;;;;10.83;40.30;98077.16;4779560;28;102234;-81
2021/03/21 10:40:25;;;;;;;;;4.75;3.50;;;;;10.83;40.44;98065.50;4806686;28;108108;-81
2021/03/21 10:42:58;;;;;;;;;3.50;3.50;;;;;10.83;40.68;98070.94;4715776;28;108796;-81
2021/03/21 10:45:34;;;;;;;;;5.25;4.00;;;;;10.83;40.27;98068.22;4888697;28;102266;-81
2021/03/21 10:48:04;;;;;;;;;2.00;2.00;;;;;10.82;40.44;98072.78;4854181;28;103803;-81
2021/03/21 10:50:31;;;;;;;;;3.50;2.75;;;;;10.84;40.27;98061.78;4810408;28;103123;-81
2021/03/21 10:53:08;;;;;;;;;6.25;4.50;;;;;10.83;40.40;98060.94;4897582;28;104063;-81
2021/03/21 10:55:36;;;;;;;;;5.00;5.00;;;;;10.83;40.17;98065.50;4878563;28;102358;-87
2021/03/21 10:58:29;;;;;;;;;3.00;3.00;;;;;10.83;40.28;98055.53;4902597;28;102201;-87
2021/03/21 11:01:18;;;;;;;;;3.75;3.00;;;;;10.82;40.29;98058.44;4911882;28;102198;-86
2021/03/21 11:04:00;;;;;;;;;5.00;3.50;;;;;10.82;40.40;98061.16;4871041;28;104951;-85
2021/03/21 11:06:32;;;;;;;;;3.25;3.00;;;;;10.81;40.09;98054.09;4744322;28;102482;-83
2021/03/21 11:09:16;;;;;;;;;4.00;3.00;;;;;10.82;40.21;98053.03;4885280;28;102225;-83
2021/03/21 11:11:45;;;;;;;;;4.00;3.00;;;;;10.81;40.20;98046.00;4861633;28;102174;-83
2021/03/21 11:14:22;;;;;;;;;5.00;4.00;;;;;10.80;40.06;98039.75;4719665;28;103799;-83
2021/03/21 11:16:51;;;;;;;;;3.25;3.00;;;;;10.80;40.28;98038.91;4829292;28;103987;-82
2021/03/21 11:19:35;;;;;;;;;4.25;4.00;;;;;10.80;40.34;98042.44;4789276;28;103589;-84
2021/03/21 11:22:38;;;;;;;;;3.50;3.50;;;;;10.79;40.28;98040.78;4828588;28;102266;-84
2021/03/21 11:25:13;;;;;;;;;2.75;2.00;;;;;10.80;40.04;98038.91;4825532;28;108759;-86
2021/03/21 11:27:40;;;;;;;;;4.00;4.00;;;;;10.80;39.80;98033.50;4882025;28;102705;-86
2021/03/21 11:30:17;;;;;;;;;2.00;2.00;;;;;10.80;40.17;98023.53;4891364;28;102428;-82
2021/03/21 11:32:44;;;;;;;;;3.00;3.00;;;;;10.81;39.59;98030.56;4901803;28;102207;-79
2021/03/21 11:35:27;;;;;;;;;3.75;3.00;;;;;10.80;39.95;98018.13;4911601;28;104119;-80
2021/03/21 11:37:56;;;;;;;;;2.75;2.25;;;;;10.78;39.93;98019.34;4656271;28;102344;-82
2021/03/21 11:40:28;;;;;;;;;3.00;2.00;;;;;10.80;39.89;98028.09;4787578;29;102320;-82
2021/03/21 11:43:25;;;;;;;;;3.75;2.25;;;;;10.82;39.79;98020.59;4772125;28;102746;-82
2021/03/21 11:45:52;;;;;;;;;3.00;3.00;;;;;10.80;39.57;98014.56;4656105;28;104371;-82
2021/03/21 11:48:25;;;;;;;;;3.50;3.25;;;;;10.81;39.72;98005.44;4720728;28;102376;-82
2021/03/21 11:50:55;;;;;;;;;3.50;3.00;;;;;10.79;39.79;98004.81;4803271;28;102433;-82
2021/03/21 11:53:24;;;;;;;;;2.50;1.75;;;;;10.79;39.63;97999.38;4814069;28;103011;-82
2021/03/21 11:55:56;;;;;;;;;2.75;2.00;;;;;10.80;39.62;97992.94;4729745;28;106506;-85
2021/03/21 11:58:28;;;;;;;;;4.25;2.75;;;;;10.77;39.41;97990.66;4655446;28;102665;-85
2021/03/21 12:01:00;;;;;;;;;4.00;3.00;;;;;10.79;39.72;97992.09;4758268;28;102897;-86
2021/03/21 12:03:27;;;;;;;;;3.25;2.50;;;;;10.78;39.37;97982.34;4876911;28;102353;-86
2021/03/21 12:06:23;;;;;;;;;4.00;3.00;;;;;10.79;39.50;97985.88;4885189;28;104317;-86
2021/03/21 12:08:50;;;;;;;;;2.00;2.00;;;;;10.79;39.66;97986.69;4885321;28;102745;-86
2021/03/21 12:11:21;;;;;;;;;3.00;3.00;;;;;10.78;39.84;97986.91;4846522;28;102256;-84
2021/03/21 12:13:48;;;;;;;;;3.75;2.50;;;;;10.79;39.85;97972.34;4783269;28;102382;-85
2021/03/21 12:16:38;;;;;;;;;3.00;2.00;;;;;10.78;39.80;97978.78;4904872;28;105196;-82
2021/03/21 12:19:23;;;;;;;;;4.50;3.75;;;;;10.78;40.09;97970.69;4893610;28;103079;-85
2021/03/21 12:21:51;;;;;;;;;3.25;2.75;;;;;10.77;39.52;97969.84;4902290;28;102230;-85